sensor_id;sensor_type;location;lat;lon;timestamp;pressure;altitude;pressure_sealevel;temperature;humidity
56400;BME280;42298;53.638;9.876;2023-02-15T00:01:51;102797.75;;;7.33;68.79
56400;BME280;42298;53.638;9.876;2023-02-15T00:04:20;102803.09;;;7.39;68.93
56400;BME280;42298;53.638;9.876;2023-02-15T00:06:45;102802.50;;;7.37;69.36
56400;BME280;42298;53.638;9.876;2023-02-15T00:09:11;102808.47;;;7.46;69.19
56400;BME280;42298;53.638;9.876;2023-02-15T00:11:37;102795.47;;;7.41;69.60
56400;BME280;42298;53.638;9.876;2023-02-15T00:14:14;102805.59;;;7.64;69.07
56400;BME280;42298;53.638;9.876;2023-02-15T00:16:41;102775.09;;;7.37;69.74
56400;BME280;42298;53.638;9.876;2023-02-15T00:19:08;102784.13;;;7.38;70.01
56400;BME280;42298;53.638;9.876;2023-02-15T00:21:35;102792.50;;;7.43;70.02
56400;BME280;42298;53.638;9.876;2023-02-15T00:24:02;102795.94;;;7.50;70.14
56400;BME280;42298;53.638;9.876;2023-02-15T00:26:29;102804.41;;;7.60;70.10
56400;BME280;42298;53.638;9.876;2023-02-15T00:28:55;102798.44;;;7.63;69.42
56400;BME280;42298;53.638;9.876;2023-02-15T00:31:21;102796.19;;;7.60;69.96
56400;BME280;42298;53.638;9.876;2023-02-15T00:33:47;102800.09;;;7.64;69.85
56400;BME280;42298;53.638;9.876;2023-02-15T00:36:12;102778.03;;;7.59;69.73
56400;BME280;42298;53.638;9.876;2023-02-15T00:38:38;102792.81;;;7.81;69.89
56400;BME280;42298;53.638;9.876;2023-02-15T00:41:06;102793.38;;;7.95;69.30
56400;BME280;42298;53.638;9.876;2023-02-15T00:43:33;102795.28;;;7.94;69.16
56400;BME280;42298;53.638;9.876;2023-02-15T00:45:59;102758.00;;;7.70;69.19
56400;BME280;42298;53.638;9.876;2023-02-15T00:48:24;102756.91;;;7.71;69.26
56400;BME280;42298;53.638;9.876;2023-02-15T00:50:52;102769.06;;;7.87;69.73
56400;BME280;42298;53.638;9.876;2023-02-15T00:53:18;102757.97;;;7.81;68.92
56400;BME280;42298;53.638;9.876;2023-02-15T00:55:43;102748.31;;;7.79;69.63
56400;BME280;42298;53.638;9.876;2023-02-15T00:58:10;102748.78;;;7.88;69.51
56400;BME280;42298;53.638;9.876;2023-02-15T01:00:36;102762.38;;;7.94;69.08
56400;BME280;42298;53.638;9.876;2023-02-15T01:03:02;102754.84;;;7.90;69.53
56400;BME280;42298;53.638;9.876;2023-02-15T01:05:27;102759.97;;;7.98;68.96
56400;BME280;42298;53.638;9.876;2023-02-15T01:07:55;102766.28;;;7.98;69.62
56400;BME280;42298;53.638;9.876;2023-02-15T01:10:20;102759.38;;;7.96;69.08
56400;BME280;42298;53.638;9.876;2023-02-15T01:12:45;102744.25;;;7.93;69.84
56400;BME280;42298;53.638;9.876;2023-02-15T01:15:11;102742.34;;;7.82;69.75
56400;BME280;42298;53.638;9.876;2023-02-15T01:17:36;102781.94;;;7.98;69.80
56400;BME280;42298;53.638;9.876;2023-02-15T01:20:01;102761.63;;;7.99;70.73
56400;BME280;42298;53.638;9.876;2023-02-15T01:22:27;102751.50;;;7.99;69.55
56400;BME280;42298;53.638;9.876;2023-02-15T01:24:52;102774.00;;;8.13;69.77
56400;BME280;42298;53.638;9.876;2023-02-15T01:27:18;102769.44;;;8.18;69.71
56400;BME280;42298;53.638;9.876;2023-02-15T01:29:43;102766.31;;;8.26;69.40
56400;BME280;42298;53.638;9.876;2023-02-15T01:32:08;102756.66;;;8.24;69.48
56400;BME280;42298;53.638;9.876;2023-02-15T01:34:34;102751.31;;;8.17;68.96
56400;BME280;42298;53.638;9.876;2023-02-15T01:36:59;102748.06;;;8.20;69.51
56400;BME280;42298;53.638;9.876;2023-02-15T01:39:25;102720.66;;;8.09;69.27
56400;BME280;42298;53.638;9.876;2023-02-15T01:41:50;102722.09;;;8.11;69.25
56400;BME280;42298;53.638;9.876;2023-02-15T01:44:48;102744.63;;;8.41;69.28
56400;BME280;42298;53.638;9.876;2023-02-15T01:50:25;102743.09;;;8.45;69.08
56400;BME280;42298;53.638;9.876;2023-02-15T01:52:58;102739.22;;;8.30;68.71
56400;BME280;42298;53.638;9.876;2023-02-15T01:55:28;102736.34;;;8.36;69.67
56400;BME280;42298;53.638;9.876;2023-02-15T01:57:54;102733.72;;;8.30;69.08
56400;BME280;42298;53.638;9.876;2023-02-15T02:00:20;102732.88;;;8.29;69.13
56400;BME280;42298;53.638;9.876;2023-02-15T02:02:49;102721.91;;;8.29;69.86
56400;BME280;42298;53.638;9.876;2023-02-15T02:05:16;102715.66;;;8.34;70.03
56400;BME280;42298;53.638;9.876;2023-02-15T02:07:43;102700.38;;;8.38;68.55
56400;BME280;42298;53.638;9.876;2023-02-15T02:10:13;102708.94;;;8.41;69.16
56400;BME280;42298;53.638;9.876;2023-02-15T02:12:42;102693.47;;;8.35;69.62
56400;BME280;42298;53.638;9.876;2023-02-15T02:15:09;102704.38;;;8.30;69.16
56400;BME280;42298;53.638;9.876;2023-02-15T02:18:03;102685.44;;;8.17;70.18
56400;BME280;42298;53.638;9.876;2023-02-15T02:23:51;102696.41;;;8.17;70.49
56400;BME280;42298;53.638;9.876;2023-02-15T02:29:32;102683.50;;;8.18;69.69
56400;BME280;42298;53.638;9.876;2023-02-15T02:40:06;102674.66;;;8.27;69.88
56400;BME280;42298;53.638;9.876;2023-02-15T02:45:09;102675.81;;;8.31;69.37
56400;BME280;42298;53.638;9.876;2023-02-15T02:50:21;102668.75;;;8.35;69.83
56400;BME280;42298;53.638;9.876;2023-02-15T02:52:50;102671.50;;;8.35;69.51
56400;BME280;42298;53.638;9.876;2023-02-15T02:55:42;102666.50;;;8.32;69.35
56400;BME280;42298;53.638;9.876;2023-02-15T03:00:54;102657.34;;;8.27;69.35
56400;BME280;42298;53.638;9.876;2023-02-15T03:03:25;102647.72;;;8.24;69.96
56400;BME280;42298;53.638;9.876;2023-02-15T03:05:57;102648.91;;;8.17;69.43
56400;BME280;42298;53.638;9.876;2023-02-15T03:08:25;102660.28;;;8.09;70.03
56400;BME280;42298;53.638;9.876;2023-02-15T03:10:57;102678.88;;;8.18;70.31
56400;BME280;42298;53.638;9.876;2023-02-15T03:13:23;102675.47;;;8.28;69.84
56400;BME280;42298;53.638;9.876;2023-02-15T03:15:50;102645.44;;;8.21;69.68
56400;BME280;42298;53.638;9.876;2023-02-15T03:18:42;102645.88;;;8.30;69.91
56400;BME280;42298;53.638;9.876;2023-02-15T03:21:09;102643.38;;;8.28;69.86
56400;BME280;42298;53.638;9.876;2023-02-15T03:23:49;102662.03;;;8.43;69.55
56400;BME280;42298;53.638;9.876;2023-02-15T03:26:17;102645.63;;;8.31;69.82
56400;BME280;42298;53.638;9.876;2023-02-15T03:28:46;102644.03;;;8.35;69.67
56400;BME280;42298;53.638;9.876;2023-02-15T03:31:14;102641.25;;;8.47;69.43
56400;BME280;42298;53.638;9.876;2023-02-15T03:33:46;102642.25;;;8.57;69.77
56400;BME280;42298;53.638;9.876;2023-02-15T03:36:21;102625.66;;;8.52;69.16
56400;BME280;42298;53.638;9.876;2023-02-15T03:41:34;102627.91;;;8.55;68.77
56400;BME280;42298;53.638;9.876;2023-02-15T03:44:09;102607.03;;;8.38;68.74
56400;BME280;42298;53.638;9.876;2023-02-15T03:46:46;102605.09;;;8.38;69.21
56400;BME280;42298;53.638;9.876;2023-02-15T03:49:31;102638.41;;;8.58;69.25
56400;BME280;42298;53.638;9.876;2023-02-15T03:52:02;102631.41;;;8.51;69.36
56400;BME280;42298;53.638;9.876;2023-02-15T03:54:31;102631.25;;;8.41;69.12
56400;BME280;42298;53.638;9.876;2023-02-15T03:57:19;102608.91;;;8.21;69.41
56400;BME280;42298;53.638;9.876;2023-02-15T04:00:12;102604.59;;;8.25;69.62
56400;BME280;42298;53.638;9.876;2023-02-15T04:05:43;102616.06;;;8.22;70.16
56400;BME280;42298;53.638;9.876;2023-02-15T04:08:09;102605.69;;;8.24;70.19
56400;BME280;42298;53.638;9.876;2023-02-15T04:10:35;102606.84;;;8.28;69.76
56400;BME280;42298;53.638;9.876;2023-02-15T04:13:19;102615.94;;;8.28;70.22
56400;BME280;42298;53.638;9.876;2023-02-15T04:15:46;102613.44;;;8.27;69.43
56400;BME280;42298;53.638;9.876;2023-02-15T04:18:35;102600.47;;;8.22;69.55
56400;BME280;42298;53.638;9.876;2023-02-15T04:21:21;102618.09;;;8.26;70.12
56400;BME280;42298;53.638;9.876;2023-02-15T04:24:05;102603.38;;;8.32;70.15
56400;BME280;42298;53.638;9.876;2023-02-15T04:26:49;102604.13;;;8.44;69.33
56400;BME280;42298;53.638;9.876;2023-02-15T04:29:18;102608.53;;;8.45;68.97
56400;BME280;42298;53.638;9.876;2023-02-15T04:31:43;102578.50;;;8.22;69.37
56400;BME280;42298;53.638;9.876;2023-02-15T04:34:09;102605.09;;;8.38;68.79
56400;BME280;42298;53.638;9.876;2023-02-15T04:36:36;102570.72;;;8.19;69.24
56400;BME280;42298;53.638;9.876;2023-02-15T04:39:02;102592.97;;;8.34;69.09
56400;BME280;42298;53.638;9.876;2023-02-15T04:41:27;102609.28;;;8.41;69.16
56400;BME280;42298;53.638;9.876;2023-02-15T04:43:52;102596.88;;;8.38;68.96
56400;BME280;42298;53.638;9.876;2023-02-15T04:46:18;102606.34;;;8.47;69.38
56400;BME280;42298;53.638;9.876;2023-02-15T04:48:43;102571.00;;;8.34;69.30
56400;BME280;42298;53.638;9.876;2023-02-15T04:51:09;102592.38;;;8.49;69.15
56400;BME280;42298;53.638;9.876;2023-02-15T04:53:35;102594.06;;;8.50;69.11
56400;BME280;42298;53.638;9.876;2023-02-15T04:56:00;102590.56;;;8.38;68.94
56400;BME280;42298;53.638;9.876;2023-02-15T04:58:26;102552.22;;;8.10;68.25
56400;BME280;42298;53.638;9.876;2023-02-15T05:00:55;102571.50;;;8.31;69.19
56400;BME280;42298;53.638;9.876;2023-02-15T05:03:20;102572.00;;;8.28;68.93
56400;BME280;42298;53.638;9.876;2023-02-15T05:05:46;102583.16;;;8.38;69.13
56400;BME280;42298;53.638;9.876;2023-02-15T05:08:11;102567.88;;;8.26;68.90
56400;BME280;42298;53.638;9.876;2023-02-15T05:10:37;102585.59;;;8.35;68.82
56400;BME280;42298;53.638;9.876;2023-02-15T05:13:02;102585.59;;;8.35;68.84
56400;BME280;42298;53.638;9.876;2023-02-15T05:15:27;102570.50;;;8.37;68.99
56400;BME280;42298;53.638;9.876;2023-02-15T05:17:53;102546.72;;;8.26;69.15
56400;BME280;42298;53.638;9.876;2023-02-15T05:20:19;102555.03;;;8.31;68.99
56400;BME280;42298;53.638;9.876;2023-02-15T05:22:45;102556.19;;;8.35;69.11
56400;BME280;42298;53.638;9.876;2023-02-15T05:25:10;102548.22;;;8.34;68.22
56400;BME280;42298;53.638;9.876;2023-02-15T05:27:54;102559.69;;;8.31;68.86
56400;BME280;42298;53.638;9.876;2023-02-15T05:30:38;102563.19;;;8.26;69.98
56400;BME280;42298;53.638;9.876;2023-02-15T05:33:07;102561.19;;;8.38;69.32
56400;BME280;42298;53.638;9.876;2023-02-15T05:35:34;102552.88;;;8.33;68.73
56400;BME280;42298;53.638;9.876;2023-02-15T05:37:59;102553.03;;;8.43;69.47
56400;BME280;42298;53.638;9.876;2023-02-15T05:40:24;102564.88;;;8.44;69.16
56400;BME280;42298;53.638;9.876;2023-02-15T05:42:50;102530.06;;;8.16;68.77
56400;BME280;42298;53.638;9.876;2023-02-15T05:45:15;102549.38;;;8.21;69.02
56400;BME280;42298;53.638;9.876;2023-02-15T05:47:41;102532.75;;;8.11;68.98
56400;BME280;42298;53.638;9.876;2023-02-15T05:50:07;102551.66;;;8.24;68.74
56400;BME280;42298;53.638;9.876;2023-02-15T05:52:33;102524.03;;;7.98;69.20
56400;BME280;42298;53.638;9.876;2023-02-15T05:54:59;102546.28;;;8.01;69.46
56400;BME280;42298;53.638;9.876;2023-02-15T05:57:26;102543.88;;;8.05;69.50
56400;BME280;42298;53.638;9.876;2023-02-15T05:59:51;102530.81;;;7.95;69.79
56400;BME280;42298;53.638;9.876;2023-02-15T06:02:16;102532.25;;;7.98;69.59
56400;BME280;42298;53.638;9.876;2023-02-15T06:04:42;102521.94;;;7.88;69.27
56400;BME280;42298;53.638;9.876;2023-02-15T06:07:07;102551.69;;;7.96;69.39
56400;BME280;42298;53.638;9.876;2023-02-15T06:09:32;102567.81;;;7.93;68.68
56400;BME280;42298;53.638;9.876;2023-02-15T06:11:58;102550.75;;;7.74;69.76
56400;BME280;42298;53.638;9.876;2023-02-15T06:14:23;102561.81;;;7.79;70.66
56400;BME280;42298;53.638;9.876;2023-02-15T06:16:48;102550.09;;;7.83;70.30
56400;BME280;42298;53.638;9.876;2023-02-15T06:19:14;102558.84;;;7.97;70.16
56400;BME280;42298;53.638;9.876;2023-02-15T06:58:42;102544.56;;;8.28;68.09
56400;BME280;42298;53.638;9.876;2023-02-15T07:01:08;102551.41;;;8.26;68.38
56400;BME280;42298;53.638;9.876;2023-02-15T07:03:34;102542.72;;;8.17;68.36
56400;BME280;42298;53.638;9.876;2023-02-15T07:06:02;102547.03;;;8.13;67.98
56400;BME280;42298;53.638;9.876;2023-02-15T07:08:28;102541.97;;;8.05;69.00
56400;BME280;42298;53.638;9.876;2023-02-15T07:10:55;102544.22;;;8.08;68.96
56400;BME280;42298;53.638;9.876;2023-02-15T07:13:41;102542.88;;;8.11;68.39
56400;BME280;42298;53.638;9.876;2023-02-15T07:16:08;102547.03;;;8.13;68.87
56400;BME280;42298;53.638;9.876;2023-02-15T07:18:33;102532.41;;;7.91;68.48
56400;BME280;42298;53.638;9.876;2023-02-15T07:20:59;102539.22;;;7.89;69.39
56400;BME280;42298;53.638;9.876;2023-02-15T07:23:24;102543.47;;;7.79;68.94
56400;BME280;42298;53.638;9.876;2023-02-15T07:25:59;102549.19;;;7.78;69.95
56400;BME280;42298;53.638;9.876;2023-02-15T07:28:24;102533.63;;;7.67;69.33
56400;BME280;42298;53.638;9.876;2023-02-15T07:30:50;102532.63;;;7.73;69.81
56400;BME280;42298;53.638;9.876;2023-02-15T07:33:15;102517.75;;;7.69;69.00
56400;BME280;42298;53.638;9.876;2023-02-15T07:35:57;102511.78;;;7.72;69.82
56400;BME280;42298;53.638;9.876;2023-02-15T07:38:25;102524.91;;;7.70;69.54
56400;BME280;42298;53.638;9.876;2023-02-15T07:40:51;102530.72;;;7.73;69.53
56400;BME280;42298;53.638;9.876;2023-02-15T07:43:17;102526.41;;;7.77;69.37
56400;BME280;42298;53.638;9.876;2023-02-15T07:45:42;102531.06;;;7.94;69.28
56400;BME280;42298;53.638;9.876;2023-02-15T07:48:08;102523.78;;;7.99;68.71
56400;BME280;42298;53.638;9.876;2023-02-15T07:50:34;102520.34;;;7.92;69.21
56400;BME280;42298;53.638;9.876;2023-02-15T07:53:02;102522.03;;;7.93;68.78
56400;BME280;42298;53.638;9.876;2023-02-15T07:55:27;102477.03;;;7.77;69.34
56400;BME280;42298;53.638;9.876;2023-02-15T07:57:53;102511.13;;;7.98;68.50
56400;BME280;42298;53.638;9.876;2023-02-15T08:00:20;102500.47;;;8.02;68.80
56400;BME280;42298;53.638;9.876;2023-02-15T08:02:54;102501.13;;;7.92;68.81
56400;BME280;42298;53.638;9.876;2023-02-15T08:05:39;102504.31;;;7.84;69.45
56400;BME280;42298;53.638;9.876;2023-02-15T08:08:06;102501.97;;;7.76;69.25
56400;BME280;42298;53.638;9.876;2023-02-15T08:10:32;102500.38;;;7.80;70.38
56400;BME280;42298;53.638;9.876;2023-02-15T08:13:15;102497.63;;;7.80;69.67
56400;BME280;42298;53.638;9.876;2023-02-15T08:15:48;102487.84;;;7.84;69.58
56400;BME280;42298;53.638;9.876;2023-02-15T08:18:15;102451.19;;;7.73;69.66
56400;BME280;42298;53.638;9.876;2023-02-15T08:20:40;102494.00;;;8.08;69.44
56400;BME280;42298;53.638;9.876;2023-02-15T08:23:05;102449.75;;;7.88;68.30
56400;BME280;42298;53.638;9.876;2023-02-15T08:25:31;102477.38;;;7.98;68.97
56400;BME280;42298;53.638;9.876;2023-02-15T08:27:57;102462.47;;;7.94;68.63
56400;BME280;42298;53.638;9.876;2023-02-15T08:30:23;102473.38;;;7.89;68.87
56400;BME280;42298;53.638;9.876;2023-02-15T08:32:48;102477.53;;;7.74;69.07
56400;BME280;42298;53.638;9.876;2023-02-15T08:35:13;102476.44;;;7.75;68.93
56400;BME280;42298;53.638;9.876;2023-02-15T08:37:38;102448.63;;;7.67;69.68
56400;BME280;42298;53.638;9.876;2023-02-15T08:40:04;102443.13;;;7.67;69.42
56400;BME280;42298;53.638;9.876;2023-02-15T08:42:32;102484.44;;;7.94;69.21
56400;BME280;42298;53.638;9.876;2023-02-15T08:44:57;102475.69;;;7.80;69.07
56400;BME280;42298;53.638;9.876;2023-02-15T08:47:23;102475.69;;;7.80;68.98
56400;BME280;42298;53.638;9.876;2023-02-15T08:49:48;102488.84;;;7.78;69.17
56400;BME280;42298;53.638;9.876;2023-02-15T08:52:13;102486.09;;;7.78;70.02
56400;BME280;42298;53.638;9.876;2023-02-15T08:54:38;102483.53;;;7.88;69.50
56400;BME280;42298;53.638;9.876;2023-02-15T08:57:04;102486.00;;;7.90;69.12
56400;BME280;42298;53.638;9.876;2023-02-15T08:59:29;102486.00;;;7.90;69.20
56400;BME280;42298;53.638;9.876;2023-02-15T09:01:55;102489.75;;;8.00;69.21
56400;BME280;42298;53.638;9.876;2023-02-15T09:04:20;102477.53;;;7.91;68.86
56400;BME280;42298;53.638;9.876;2023-02-15T09:06:49;102478.38;;;7.92;68.87
56400;BME280;42298;53.638;9.876;2023-02-15T09:09:16;102479.88;;;7.99;69.04
56400;BME280;42298;53.638;9.876;2023-02-15T09:11:44;102474.28;;;7.94;69.84
56400;BME280;42298;53.638;9.876;2023-02-15T09:14:16;102479.03;;;7.99;69.10
56400;BME280;42298;53.638;9.876;2023-02-15T09:16:44;102463.72;;;7.86;70.35
56400;BME280;42298;53.638;9.876;2023-02-15T09:19:14;102482.50;;;8.11;70.29
56400;BME280;42298;53.638;9.876;2023-02-15T09:21:40;102469.41;;;7.96;69.48
56400;BME280;42298;53.638;9.876;2023-02-15T09:24:08;102459.81;;;7.99;69.82
56400;BME280;42298;53.638;9.876;2023-02-15T09:26:36;102481.66;;;8.10;69.67
56400;BME280;42298;53.638;9.876;2023-02-15T09:29:03;102477.88;;;8.11;69.94
56400;BME280;42298;53.638;9.876;2023-02-15T09:31:48;102478.69;;;8.28;70.37
56400;BME280;42298;53.638;9.876;2023-02-15T09:34:16;102465.81;;;8.29;69.86
56400;BME280;42298;53.638;9.876;2023-02-15T09:36:44;102466.56;;;8.24;69.98
56400;BME280;42298;53.638;9.876;2023-02-15T09:39:12;102461.38;;;8.28;70.14
56400;BME280;42298;53.638;9.876;2023-02-15T09:52:48;102455.88;;;8.28;68.62
56400;BME280;42298;53.638;9.876;2023-02-15T10:00:49;102459.31;;;8.56;68.24
56400;BME280;42298;53.638;9.876;2023-02-15T10:03:40;102471.00;;;8.68;68.79
56400;BME280;42298;53.638;9.876;2023-02-15T10:09:11;102484.09;;;8.61;67.31
56400;BME280;42298;53.638;9.876;2023-02-15T10:17:41;102480.09;;;8.90;67.04
56400;BME280;42298;53.638;9.876;2023-02-15T10:25:42;102481.13;;;8.84;67.66
56400;BME280;42298;53.638;9.876;2023-02-15T10:28:18;102475.16;;;8.92;68.11
56400;BME280;42298;53.638;9.876;2023-02-15T10:30:51;102480.28;;;9.05;68.00
56400;BME280;42298;53.638;9.876;2023-02-15T10:33:40;102478.22;;;9.17;66.90
56400;BME280;42298;53.638;9.876;2023-02-15T10:39:52;102475.31;;;9.29;66.76
56400;BME280;42298;53.638;9.876;2023-02-15T10:50:47;102445.22;;;9.44;66.43
56400;BME280;42298;53.638;9.876;2023-02-15T11:01:52;102450.88;;;9.64;65.93
56400;BME280;42298;53.638;9.876;2023-02-15T11:04:45;102451.38;;;9.56;66.00
56400;BME280;42298;53.638;9.876;2023-02-15T11:07:32;102442.84;;;9.57;66.30
56400;BME280;42298;53.638;9.876;2023-02-15T11:12:31;102445.22;;;9.81;66.10
56400;BME280;42298;53.638;9.876;2023-02-15T11:15:02;102449.53;;;9.98;64.23
56400;BME280;42298;53.638;9.876;2023-02-15T11:17:38;102455.97;;;10.14;64.28
56400;BME280;42298;53.638;9.876;2023-02-15T11:20:22;102430.34;;;10.08;63.87
56400;BME280;42298;53.638;9.876;2023-02-15T11:22:50;102436.16;;;10.17;64.17
56400;BME280;42298;53.638;9.876;2023-02-15T11:25:23;102434.88;;;10.34;63.89
56400;BME280;42298;53.638;9.876;2023-02-15T11:27:50;102432.66;;;10.31;64.09
56400;BME280;42298;53.638;9.876;2023-02-15T11:30:25;102438.53;;;10.40;63.71
56400;BME280;42298;53.638;9.876;2023-02-15T11:32:57;102421.41;;;10.38;63.66
56400;BME280;42298;53.638;9.876;2023-02-15T11:35:32;102415.91;;;10.38;62.55
56400;BME280;42298;53.638;9.876;2023-02-15T11:38:18;102418.09;;;10.36;63.39
56400;BME280;42298;53.638;9.876;2023-02-15T11:40:48;102418.38;;;10.34;63.03
56400;BME280;42298;53.638;9.876;2023-02-15T11:43:31;102416.28;;;10.56;63.18
56400;BME280;42298;53.638;9.876;2023-02-15T11:45:59;102400.28;;;10.58;62.86
56400;BME280;42298;53.638;9.876;2023-02-15T11:48:24;102390.69;;;10.66;63.45
56400;BME280;42298;53.638;9.876;2023-02-15T11:50:50;102390.72;;;10.71;62.33
56400;BME280;42298;53.638;9.876;2023-02-15T11:53:20;102391.31;;;10.83;63.18
56400;BME280;42298;53.638;9.876;2023-02-15T11:55:48;102393.81;;;10.99;62.13
56400;BME280;42298;53.638;9.876;2023-02-15T12:00:45;102387.25;;;11.35;62.39
56400;BME280;42298;53.638;9.876;2023-02-15T12:03:19;102368.78;;;11.41;61.35
56400;BME280;42298;53.638;9.876;2023-02-15T12:05:49;102370.41;;;11.57;61.64
56400;BME280;42298;53.638;9.876;2023-02-15T12:08:19;102374.84;;;11.53;60.32
56400;BME280;42298;53.638;9.876;2023-02-15T12:10:57;102366.28;;;11.59;60.80
56400;BME280;42298;53.638;9.876;2023-02-15T12:13:23;102360.50;;;11.66;60.37
56400;BME280;42298;53.638;9.876;2023-02-15T12:15:51;102364.38;;;11.85;60.03
56400;BME280;42298;53.638;9.876;2023-02-15T12:20:59;102345.53;;;12.07;59.74
56400;BME280;42298;53.638;9.876;2023-02-15T12:23:27;102324.56;;;12.01;59.28
56400;BME280;42298;53.638;9.876;2023-02-15T12:25:54;102336.41;;;12.17;59.30
56400;BME280;42298;53.638;9.876;2023-02-15T12:30:59;102340.97;;;12.41;59.52
56400;BME280;42298;53.638;9.876;2023-02-15T12:33:36;102334.59;;;12.46;58.79
56400;BME280;42298;53.638;9.876;2023-02-15T12:36:12;102322.19;;;12.38;58.21
56400;BME280;42298;53.638;9.876;2023-02-15T12:38:40;102331.09;;;12.30;58.27
56400;BME280;42298;53.638;9.876;2023-02-15T12:41:23;102332.97;;;12.40;58.33
56400;BME280;42298;53.638;9.876;2023-02-15T12:44:15;102329.06;;;12.51;58.27
56400;BME280;42298;53.638;9.876;2023-02-15T12:49:34;102320.00;;;12.40;57.98
56400;BME280;42298;53.638;9.876;2023-02-15T12:52:03;102317.81;;;12.32;57.71
56400;BME280;42298;53.638;9.876;2023-02-15T12:54:35;102307.09;;;12.21;58.60
56400;BME280;42298;53.638;9.876;2023-02-15T12:59:51;102323.38;;;12.27;59.28
56400;BME280;42298;53.638;9.876;2023-02-15T13:02:27;102317.47;;;12.44;58.85
56400;BME280;42298;53.638;9.876;2023-02-15T13:04:53;102317.16;;;12.50;59.36
56400;BME280;42298;53.638;9.876;2023-02-15T13:07:23;102295.91;;;12.51;57.83
56400;BME280;42298;53.638;9.876;2023-02-15T13:09:50;102300.00;;;12.53;58.54
56400;BME280;42298;53.638;9.876;2023-02-15T13:12:26;102301.16;;;12.47;58.45
56400;BME280;42298;53.638;9.876;2023-02-15T13:14:54;102288.47;;;12.41;58.20
56400;BME280;42298;53.638;9.876;2023-02-15T13:17:26;102288.69;;;12.50;58.77
56400;BME280;42298;53.638;9.876;2023-02-15T13:19:56;102291.69;;;12.58;58.11
56400;BME280;42298;53.638;9.876;2023-02-15T13:22:31;102274.56;;;12.56;58.56
56400;BME280;42298;53.638;9.876;2023-02-15T13:25:04;102289.41;;;12.70;58.29
56400;BME280;42298;53.638;9.876;2023-02-15T13:27:38;102287.44;;;12.76;58.12
56400;BME280;42298;53.638;9.876;2023-02-15T13:30:26;102291.53;;;12.83;57.50
56400;BME280;42298;53.638;9.876;2023-02-15T13:32:57;102282.38;;;12.88;57.94
56400;BME280;42298;53.638;9.876;2023-02-15T13:35:25;102278.78;;;12.87;57.33
56400;BME280;42298;53.638;9.876;2023-02-15T13:38:15;102285.31;;;13.06;57.95
56400;BME280;42298;53.638;9.876;2023-02-15T13:40:53;102280.59;;;13.07;57.53
56400;BME280;42298;53.638;9.876;2023-02-15T13:43:35;102253.03;;;12.92;56.78
56400;BME280;42298;53.638;9.876;2023-02-15T13:57:04;102264.06;;;13.02;57.38
56400;BME280;42298;53.638;9.876;2023-02-15T13:59:55;102273.13;;;13.07;57.23
56400;BME280;42298;53.638;9.876;2023-02-15T14:08:08;102270.38;;;13.07;56.99
56400;BME280;42298;53.638;9.876;2023-02-15T14:13:47;102259.06;;;12.99;56.75
56400;BME280;42298;53.638;9.876;2023-02-15T14:16:41;102254.31;;;13.09;56.56
56400;BME280;42298;53.638;9.876;2023-02-15T14:19:19;102247.94;;;13.09;57.34
56400;BME280;42298;53.638;9.876;2023-02-15T14:21:59;102209.41;;;12.84;57.26
56400;BME280;42298;53.638;9.876;2023-02-15T14:27:03;102254.81;;;13.11;57.04
56400;BME280;42298;53.638;9.876;2023-02-15T14:29:56;102239.97;;;13.02;57.01
56400;BME280;42298;53.638;9.876;2023-02-15T14:32:35;102249.28;;;13.11;56.41
56400;BME280;42298;53.638;9.876;2023-02-15T14:35:13;102248.81;;;13.04;56.89
56400;BME280;42298;53.638;9.876;2023-02-15T14:37:51;102248.19;;;13.12;56.90
56400;BME280;42298;53.638;9.876;2023-02-15T14:48:58;102226.47;;;12.96;57.68
56400;BME280;42298;53.638;9.876;2023-02-15T14:56:46;102233.16;;;12.90;58.38
56400;BME280;42298;53.638;9.876;2023-02-15T14:59:19;102235.84;;;12.95;57.75
56400;BME280;42298;53.638;9.876;2023-02-15T15:02:07;102213.91;;;12.75;57.71
56400;BME280;42298;53.638;9.876;2023-02-15T15:07:26;102229.81;;;12.93;58.24
56400;BME280;42298;53.638;9.876;2023-02-15T15:12:46;102214.66;;;12.85;58.25
56400;BME280;42298;53.638;9.876;2023-02-15T15:20:38;102237.78;;;12.99;57.88
56400;BME280;42298;53.638;9.876;2023-02-15T15:25:45;102211.38;;;12.78;58.33
56400;BME280;42298;53.638;9.876;2023-02-15T15:42:38;102212.13;;;12.55;59.35
56400;BME280;42298;53.638;9.876;2023-02-15T15:50:53;102205.56;;;12.46;59.80
56400;BME280;42298;53.638;9.876;2023-02-15T15:53:23;102195.13;;;12.33;59.74
56400;BME280;42298;53.638;9.876;2023-02-15T15:55:51;102193.75;;;12.31;59.50
56400;BME280;42298;53.638;9.876;2023-02-15T15:58:19;102202.34;;;12.29;59.58
56400;BME280;42298;53.638;9.876;2023-02-15T16:01:08;102158.59;;;12.03;59.71
56400;BME280;42298;53.638;9.876;2023-02-15T16:03:34;102176.28;;;12.02;59.90
56400;BME280;42298;53.638;9.876;2023-02-15T16:05:59;102197.25;;;12.03;60.21
56400;BME280;42298;53.638;9.876;2023-02-15T16:08:36;102196.69;;;12.01;60.32
56400;BME280;42298;53.638;9.876;2023-02-15T16:11:24;102192.06;;;11.91;60.78
56400;BME280;42298;53.638;9.876;2023-02-15T16:13:50;102189.06;;;11.83;60.97
56400;BME280;42298;53.638;9.876;2023-02-15T16:16:25;102189.88;;;11.88;60.99
56400;BME280;42298;53.638;9.876;2023-02-15T16:18:54;102185.50;;;11.82;60.93
56400;BME280;42298;53.638;9.876;2023-02-15T16:21:24;102176.09;;;11.78;60.97
56400;BME280;42298;53.638;9.876;2023-02-15T16:27:33;102170.91;;;11.61;61.16
56400;BME280;42298;53.638;9.876;2023-02-15T16:29:56;102171.22;;;11.55;61.29
56400;BME280;42298;53.638;9.876;2023-02-15T16:32:24;102168.97;;;11.57;61.19
56400;BME280;42298;53.638;9.876;2023-02-15T16:34:57;102172.63;;;11.47;61.30
56400;BME280;42298;53.638;9.876;2023-02-15T16:37:25;102169.06;;;11.32;61.66
56400;BME280;42298;53.638;9.876;2023-02-15T16:39:53;102173.50;;;11.28;62.01
56400;BME280;42298;53.638;9.876;2023-02-15T16:42:19;102129.44;;;11.03;62.09
56400;BME280;42298;53.638;9.876;2023-02-15T16:44:46;102160.59;;;11.13;61.93